createdAt,value
2018-08-28T00:02:10.745Z,99950.06
2018-08-28T00:04:40.156Z,99947.61
2018-08-28T00:07:09.424Z,99956.51
2018-08-28T00:09:38.196Z,99956.51
2018-08-28T00:12:07.408Z,99957.91
2018-08-28T00:14:36.577Z,99960.36
2018-08-28T00:17:05.494Z,99962.02
2018-08-28T00:19:34.206Z,99957.74
2018-08-28T00:22:03.024Z,99960.73
2018-08-28T00:24:32.113Z,99963.19
2018-08-28T00:27:01.991Z,99961.02
2018-08-28T00:29:31.384Z,99964.00
2018-08-28T00:32:01.070Z,99966.17
2018-08-28T00:34:30.979Z,99966.22
2018-08-28T00:37:00.031Z,99970.08
2018-08-28T00:39:28.836Z,99975.53
2018-08-28T00:41:59.560Z,99971.30
2018-08-28T00:44:28.964Z,99970.59
2018-08-28T00:46:57.800Z,99971.47
2018-08-28T00:49:27.169Z,99968.59
2018-08-28T00:51:57.040Z,99971.34
2018-08-28T00:54:25.774Z,99973.86
2018-08-28T00:56:55.468Z,99969.86
2018-08-28T00:59:24.287Z,99978.31
2018-08-28T01:01:53.728Z,99981.06
2018-08-28T01:04:23.047Z,99979.20
2018-08-28T01:06:52.783Z,99981.41
2018-08-28T01:09:21.550Z,99985.27
2018-08-28T01:11:50.327Z,99987.73
2018-08-28T01:14:19.622Z,99986.38
2018-08-28T01:16:49.062Z,99984.50
2018-08-28T01:19:17.914Z,99988.02
2018-08-28T01:21:46.705Z,99990.43
2018-08-28T01:24:16.586Z,99999.08
2018-08-28T01:26:45.350Z,99999.61
2018-08-28T01:29:14.707Z,100006.89
2018-08-28T01:31:43.592Z,100004.14
2018-08-28T01:34:12.334Z,100002.22
2018-08-28T01:36:41.199Z,100004.86
2018-08-28T01:39:10.280Z,100003.76
2018-08-28T01:41:39.634Z,100004.34
2018-08-28T01:44:09.319Z,100005.92
2018-08-28T01:46:38.568Z,100008.09
2018-08-28T01:49:07.824Z,100010.26
2018-08-28T01:51:37.183Z,100014.59
2018-08-28T01:54:06.544Z,100022.98
2018-08-28T01:56:36.000Z,100021.34
2018-08-28T01:59:05.383Z,100022.92
2018-08-28T02:01:34.169Z,100022.92
2018-08-28T02:04:03.335Z,100023.75
2018-08-28T02:06:32.872Z,100026.73
2018-08-28T02:09:02.525Z,100028.13
2018-08-28T02:11:31.664Z,100032.75
2018-08-28T02:14:00.788Z,100026.83
2018-08-28T02:16:30.724Z,100026.06
2018-08-28T02:19:00.428Z,100034.69
2018-08-28T02:21:29.536Z,100036.05
2018-08-28T02:23:58.323Z,100036.63
2018-08-28T02:26:28.101Z,100036.38
2018-08-28T02:28:57.560Z,100038.84
2018-08-28T02:31:26.347Z,100044.00
2018-08-28T02:33:55.144Z,100042.36
2018-08-28T02:36:23.953Z,100046.12
2018-08-28T02:38:52.699Z,100049.63
2018-08-28T02:41:22.367Z,100054.20
2018-08-28T02:43:51.258Z,100056.56
2018-08-28T02:46:21.088Z,100055.46
2018-08-28T02:48:50.536Z,100057.32
2018-08-28T02:51:19.342Z,100060.56
2018-08-28T02:53:48.651Z,100055.92
2018-08-28T02:56:18.371Z,100063.72
2018-08-28T02:58:47.667Z,100061.31
2018-08-28T03:01:16.441Z,100062.91
2018-08-28T03:03:45.184Z,100069.36
2018-08-28T03:06:14.592Z,100073.98
2018-08-28T03:08:43.383Z,100074.03
2018-08-28T03:11:12.186Z,100074.10
2018-08-28T03:13:41.009Z,100071.12
2018-08-28T03:16:10.331Z,100074.10
2018-08-28T03:18:39.918Z,100079.20
2018-08-28T03:21:08.755Z,100079.20
2018-08-28T03:23:38.040Z,100080.80
2018-08-28T03:26:07.706Z,100080.27
2018-08-28T03:28:36.452Z,100084.05
2018-08-28T03:31:05.333Z,100086.75
2018-08-28T03:33:34.140Z,100090.17
2018-08-28T03:36:03.075Z,100087.47
2018-08-28T03:38:32.323Z,100091.75
2018-08-28T03:41:02.189Z,100106.01
2018-08-28T03:43:31.355Z,100107.30
2018-08-28T03:46:00.383Z,100111.04
2018-08-28T03:48:29.943Z,100116.14
2018-08-28T03:50:59.624Z,100117.20
2018-08-28T03:53:29.247Z,100126.40
2018-08-28T03:55:58.052Z,100128.48
2018-08-28T03:58:27.356Z,100128.84
2018-08-28T04:00:56.152Z,100136.99
2018-08-28T04:03:25.079Z,100143.97
2018-08-28T04:05:54.584Z,100145.53
2018-08-28T04:08:25.269Z,100145.19
2018-08-28T04:10:54.036Z,100149.81
2018-08-28T04:13:22.941Z,100156.50
2018-08-28T04:15:52.343Z,100146.00
2018-08-28T04:18:21.785Z,100147.96
2018-08-28T04:20:50.584Z,100151.77
2018-08-28T04:23:20.011Z,100156.11
2018-08-28T04:25:48.781Z,100157.16
2018-08-28T04:28:17.620Z,100153.64
2018-08-28T04:30:46.454Z,100146.43
2018-08-28T04:33:15.295Z,100154.19
2018-08-28T04:35:44.172Z,100151.63
2018-08-28T04:38:13.039Z,100162.52
2018-08-28T04:40:42.896Z,100160.38
2018-08-28T04:43:11.721Z,100164.77
2018-08-28T04:45:40.557Z,100168.81
2018-08-28T04:48:10.235Z,100169.39
2018-08-28T04:50:39.657Z,100173.55
2018-08-28T04:53:08.957Z,100173.57
2018-08-28T04:55:37.713Z,100178.95
2018-08-28T04:58:07.307Z,100187.56
2018-08-28T05:00:36.111Z,100186.98
2018-08-28T05:03:05.092Z,100192.09
2018-08-28T05:05:33.882Z,100195.90
2018-08-28T05:08:03.483Z,100195.90
2018-08-28T05:10:32.567Z,100202.06
2018-08-28T05:13:02.005Z,100206.58
2018-08-28T05:15:32.560Z,100209.57
2018-08-28T05:18:03.596Z,100205.00
2018-08-28T05:20:32.901Z,100204.58
2018-08-28T05:23:02.053Z,100210.69
2018-08-28T05:25:31.071Z,100217.27
2018-08-28T05:28:00.221Z,100220.42
2018-08-28T05:30:29.304Z,100219.14
2018-08-28T05:32:58.263Z,100226.38
2018-08-28T05:35:27.112Z,100231.91
2018-08-28T05:37:56.008Z,100240.87
2018-08-28T05:40:24.770Z,100243.63
2018-08-28T05:42:54.025Z,100242.56
2018-08-28T05:45:22.775Z,100245.27
2018-08-28T05:47:52.158Z,100251.73
2018-08-28T05:50:21.608Z,100252.73
2018-08-28T05:52:51.608Z,100257.95
2018-08-28T05:55:20.382Z,100260.96
2018-08-28T05:57:49.564Z,100259.91
2018-08-28T06:00:18.368Z,100261.95
2018-08-28T06:02:47.173Z,100265.66
2018-08-28T06:05:16.645Z,100274.29
2018-08-28T06:07:46.260Z,100270.48
2018-08-28T06:10:15.043Z,100274.00
2018-08-28T06:12:43.848Z,100279.80
2018-08-28T06:15:13.260Z,100284.13
2018-08-28T06:17:42.566Z,100286.09
2018-08-28T06:20:11.407Z,100281.56
2018-08-28T06:22:40.182Z,100285.13
2018-08-28T06:25:09.020Z,100293.59
2018-08-28T06:27:37.760Z,100294.89
2018-08-28T06:30:06.787Z,100301.47
2018-08-28T06:32:35.576Z,100305.47
2018-08-28T06:35:06.173Z,100309.77
2018-08-28T06:37:34.932Z,100303.06
2018-08-28T06:40:03.801Z,100308.56
2018-08-28T06:42:33.293Z,100307.56
2018-08-28T06:45:03.100Z,100311.23
2018-08-28T06:47:33.117Z,100312.45
2018-08-28T06:50:03.620Z,100308.55
2018-08-28T06:52:32.920Z,100315.94
2018-08-28T06:55:01.983Z,100323.61
2018-08-28T06:57:31.700Z,100326.22
2018-08-28T07:00:01.606Z,100324.09
2018-08-28T07:02:30.703Z,100322.45
2018-08-28T07:05:00.997Z,100323.75
2018-08-28T07:07:30.787Z,100330.52
2018-08-28T07:10:00.075Z,100335.05
2018-08-28T07:12:28.917Z,100343.48
2018-08-28T07:14:58.793Z,100348.69
2018-08-28T07:17:28.075Z,100350.20
2018-08-28T07:19:56.928Z,100350.11
2018-08-28T07:22:26.656Z,100355.39
2018-08-28T07:24:55.466Z,100364.23
2018-08-28T07:27:24.344Z,100364.66
2018-08-28T07:29:53.285Z,100370.79
2018-08-28T07:32:22.214Z,100367.94
2018-08-28T07:34:51.024Z,100376.31
2018-08-28T07:37:19.842Z,100380.34
2018-08-28T07:39:48.697Z,100380.06
2018-08-28T07:42:20.216Z,100383.91
2018-08-28T07:44:49.031Z,100383.88
2018-08-28T07:47:18.539Z,100394.17
2018-08-28T07:49:49.595Z,100393.88
2018-08-28T07:52:19.247Z,100395.23
2018-08-28T07:54:48.052Z,100401.64
2018-08-28T07:57:17.820Z,100405.50
2018-08-28T07:59:46.610Z,100406.61
2018-08-28T08:02:15.811Z,100408.61
2018-08-28T08:04:44.635Z,100414.36
2018-08-28T08:07:14.433Z,100418.99
2018-08-28T08:09:43.220Z,100420.84
2018-08-28T08:12:12.429Z,100428.93
2018-08-28T08:14:41.956Z,100436.27
2018-08-28T08:17:11.464Z,100426.80
2018-08-28T08:19:40.308Z,100436.23
2018-08-28T08:22:09.213Z,100431.89
2018-08-28T08:24:38.080Z,100438.16
2018-08-28T08:27:06.956Z,100442.23
2018-08-28T08:29:35.863Z,100443.91
2018-08-28T08:32:04.766Z,100442.84
2018-08-28T08:34:33.543Z,100448.34
2018-08-28T08:37:02.803Z,100457.33
2018-08-28T08:39:31.940Z,100444.77
2018-08-28T08:42:02.009Z,100457.69
2018-08-28T08:44:31.089Z,100449.40
2018-08-28T08:47:01.040Z,100451.20
2018-08-28T08:49:30.943Z,100457.05
2018-08-28T08:52:00.693Z,100448.48
2018-08-28T08:54:29.871Z,100449.72
2018-08-28T08:56:59.662Z,100449.88
2018-08-28T08:59:28.540Z,100453.56
2018-08-28T09:01:57.369Z,100450.39
2018-08-28T09:04:26.189Z,100452.91
2018-08-28T09:07:26.685Z,100460.89
2018-08-28T09:09:55.503Z,100460.68
2018-08-28T09:12:24.909Z,100459.63
2018-08-28T09:14:54.265Z,100467.46
2018-08-28T09:17:24.401Z,100463.92
2018-08-28T09:19:53.291Z,100466.89
2018-08-28T09:22:22.060Z,100470.93
2018-08-28T09:24:50.924Z,100468.45
2018-08-28T09:27:19.747Z,100473.12
2018-08-28T09:29:48.788Z,100475.47
2018-08-28T09:32:17.722Z,100478.69
2018-08-28T09:34:46.493Z,100484.41
2018-08-28T09:37:15.263Z,100480.70
2018-08-28T09:39:44.128Z,100485.36
2018-08-28T09:42:13.741Z,100484.24
2018-08-28T09:44:42.543Z,100485.02
2018-08-28T09:47:11.999Z,100478.99
2018-08-28T09:49:41.280Z,100489.03
2018-08-28T09:52:12.196Z,100487.11
2018-08-28T09:54:41.418Z,100486.97
2018-08-28T09:57:11.002Z,100490.57
2018-08-28T09:59:39.768Z,100487.89
2018-08-28T10:02:08.662Z,100495.83
2018-08-28T10:04:37.556Z,100496.65
2018-08-28T10:07:07.224Z,100500.45
2018-08-28T10:09:37.282Z,100503.14
2018-08-28T10:12:06.092Z,100507.42
2018-08-28T10:14:35.049Z,100503.89
2018-08-28T10:17:04.459Z,100512.25
2018-08-28T10:19:33.381Z,100508.86
2018-08-28T10:22:02.291Z,100513.97
2018-08-28T10:24:31.393Z,100517.19
2018-08-28T10:27:00.636Z,100524.16
2018-08-28T10:29:29.838Z,100527.91
2018-08-28T10:31:58.689Z,100527.73
2018-08-28T10:34:27.514Z,100528.59
2018-08-28T10:36:56.307Z,100542.50
2018-08-28T10:39:25.132Z,100538.42
2018-08-28T10:42:25.166Z,100542.22
2018-08-28T10:44:53.936Z,100547.33
2018-08-28T10:47:23.600Z,100552.97
2018-08-28T10:49:53.170Z,100556.17
2018-08-28T10:52:22.876Z,100553.25
2018-08-28T10:54:52.450Z,100551.19
2018-08-28T10:57:21.714Z,100546.44
2018-08-28T10:59:50.966Z,100554.53
2018-08-28T11:02:19.732Z,100552.69
2018-08-28T11:04:48.857Z,100551.61
2018-08-28T11:07:18.516Z,100556.00
2018-08-28T11:09:47.387Z,100557.68
2018-08-28T11:12:16.207Z,100563.18
2018-08-28T11:14:45.858Z,100564.33
2018-08-28T11:17:15.412Z,100567.33
2018-08-28T11:19:44.518Z,100565.46
2018-08-28T11:22:13.318Z,100566.56
2018-08-28T11:24:42.195Z,100570.41
2018-08-28T11:27:11.020Z,100575.57
2018-08-28T11:29:39.924Z,100579.13
2018-08-28T11:32:08.775Z,100578.58
2018-08-28T11:34:37.644Z,100582.94
2018-08-28T11:37:06.537Z,100581.83
2018-08-28T11:39:35.452Z,100587.23
2018-08-28T11:42:05.110Z,100598.36
2018-08-28T11:44:33.988Z,100595.63
2018-08-28T11:47:03.255Z,100595.82
2018-08-28T11:49:32.687Z,100600.98
2018-08-28T11:52:02.546Z,100599.42
2018-08-28T11:54:31.596Z,100604.59
2018-08-28T11:57:01.454Z,100608.61
2018-08-28T11:59:30.605Z,100609.74
2018-08-28T12:01:59.667Z,100606.44
2018-08-28T12:04:29.567Z,100610.23
2018-08-28T12:06:59.696Z,100611.61
2018-08-28T12:09:28.534Z,100619.81
2018-08-28T12:11:57.407Z,100613.80
2018-08-28T12:14:26.251Z,100623.28
2018-08-28T12:16:55.537Z,100629.53
2018-08-28T12:19:24.338Z,100620.81
2018-08-28T12:21:53.173Z,100618.95
2018-08-28T12:24:22.056Z,100628.00
2018-08-28T12:26:51.886Z,100631.30
2018-08-28T12:29:20.798Z,100637.61
2018-08-28T12:31:49.643Z,100641.45
2018-08-28T12:34:22.401Z,100646.13
2018-08-28T12:36:51.370Z,100642.64
2018-08-28T12:39:20.154Z,100639.38
2018-08-28T12:41:49.843Z,100648.09
2018-08-28T12:44:18.664Z,100651.66
2018-08-28T12:46:48.381Z,100651.91
2018-08-28T12:49:17.865Z,100648.09
2018-08-28T12:51:47.262Z,100659.55
2018-08-28T12:54:16.087Z,100657.09
2018-08-28T12:56:45.724Z,100662.80
2018-08-28T12:59:14.580Z,100660.05
2018-08-28T13:01:44.044Z,100663.06
2018-08-28T13:04:13.444Z,100669.88
2018-08-28T13:06:42.791Z,100668.79
2018-08-28T13:09:11.632Z,100672.06
2018-08-28T13:11:40.515Z,100669.60
2018-08-28T13:14:09.726Z,100676.98
2018-08-28T13:16:39.276Z,100674.54
2018-08-28T13:19:08.050Z,100670.97
2018-08-28T13:21:37.077Z,100676.71
2018-08-28T13:24:06.008Z,100683.28
2018-08-28T13:26:34.890Z,100677.27
2018-08-28T13:32:06.799Z,100683.55
2018-08-28T13:34:35.662Z,100676.19
2018-08-28T13:37:04.688Z,100682.46
2018-08-28T13:39:33.496Z,100685.17
2018-08-28T13:42:03.056Z,100683.55
2018-08-28T13:44:32.323Z,100687.91
2018-08-28T13:47:01.859Z,100692.52
2018-08-28T13:49:31.699Z,100694.93
2018-08-28T13:52:02.231Z,100692.97
2018-08-28T13:54:31.277Z,100700.02
2018-08-28T13:57:01.143Z,100689.40
2018-08-28T13:59:30.976Z,100697.53
2018-08-28T14:02:01.489Z,100697.77
2018-08-28T14:04:30.626Z,100700.72
2018-08-28T14:07:00.247Z,100702.56
2018-08-28T14:09:29.144Z,100706.41
2018-08-28T14:11:57.950Z,100709.42
2018-08-28T14:14:26.761Z,100705.36
2018-08-28T14:16:55.833Z,100714.69
2018-08-28T14:19:24.789Z,100712.50
2018-08-28T14:21:53.815Z,100716.34
2018-08-28T14:24:23.248Z,100717.75
2018-08-28T14:26:52.159Z,100722.95
2018-08-28T14:29:21.166Z,100717.50
2018-08-28T14:31:50.494Z,100724.05
2018-08-28T14:34:19.962Z,100729.80
2018-08-28T14:36:48.849Z,100726.83
2018-08-28T14:39:17.631Z,100728.51
2018-08-28T14:41:47.702Z,100731.52
2018-08-28T14:44:16.575Z,100728.23
2018-08-28T14:46:45.664Z,100729.59
2018-08-28T14:49:15.265Z,100734.44
2018-08-28T14:51:44.649Z,100726.51
2018-08-28T14:54:13.451Z,100733.85
2018-08-28T14:56:43.354Z,100732.98
2018-08-28T14:59:12.333Z,100728.37
2018-08-28T15:01:48.726Z,100729.72
2018-08-28T15:04:17.633Z,100728.11
2018-08-28T15:06:47.320Z,100726.78
2018-08-28T15:09:16.701Z,100727.36
2018-08-28T15:11:46.007Z,100737.16
2018-08-28T15:14:14.867Z,100739.88
2018-08-28T15:16:43.845Z,100749.12
2018-08-28T15:19:12.999Z,100750.21
2018-08-28T15:21:42.217Z,100739.55
2018-08-28T15:24:11.933Z,100744.48
2018-08-28T15:26:41.397Z,100747.78
2018-08-28T15:29:10.450Z,100748.58
2018-08-28T15:31:40.537Z,100746.17
2018-08-28T15:34:10.272Z,100748.63
2018-08-28T15:36:39.062Z,100750.77
2018-08-28T15:39:08.592Z,100755.91
2018-08-28T15:41:37.868Z,100758.06
2018-08-28T15:44:06.676Z,100760.21
2018-08-28T15:46:35.498Z,100763.72
2018-08-28T15:49:05.740Z,100761.22
2018-08-28T15:51:35.118Z,100771.28
2018-08-28T15:54:04.457Z,100763.06
2018-08-28T15:56:33.944Z,100774.45
2018-08-28T15:59:02.905Z,100771.92
2018-08-28T16:01:32.073Z,100777.56
2018-08-28T16:04:01.508Z,100782.17
2018-08-28T16:06:31.616Z,100788.33
2018-08-28T16:09:00.906Z,100780.36
2018-08-28T16:11:30.053Z,100785.52
2018-08-28T16:13:59.217Z,100792.30
2018-08-28T16:16:28.116Z,100794.19
2018-08-28T16:18:58.653Z,100787.92
2018-08-28T16:21:33.440Z,100791.16
2018-08-28T16:24:02.804Z,100791.13
2018-08-28T16:26:32.051Z,100796.74
2018-08-28T16:29:01.177Z,100798.05
2018-08-28T16:31:31.020Z,100799.87
2018-08-28T16:34:01.061Z,100797.03
2018-08-28T16:36:30.440Z,100799.41
2018-08-28T16:39:00.362Z,100799.66
2018-08-28T16:41:29.882Z,100799.91
2018-08-28T16:43:59.717Z,100799.63
2018-08-28T16:46:29.480Z,100804.02
2018-08-28T16:49:00.243Z,100798.55
2018-08-28T16:51:29.987Z,100801.59
2018-08-28T16:53:59.883Z,100797.26
2018-08-28T16:56:29.851Z,100797.86
2018-08-28T16:58:58.797Z,100796.59
2018-08-28T17:01:27.637Z,100812.42
2018-08-28T17:03:57.049Z,100814.39
2018-08-28T17:06:26.923Z,100817.67
2018-08-28T17:08:55.700Z,100824.44
2018-08-28T17:11:24.493Z,100825.98
2018-08-28T17:13:53.332Z,100834.14
2018-08-28T17:16:22.325Z,100833.73
2018-08-28T17:18:51.259Z,100832.02
2018-08-28T17:21:20.859Z,100832.48
2018-08-28T17:23:50.397Z,100833.23
2018-08-28T17:26:19.322Z,100837.59
2018-08-28T17:28:48.645Z,100835.95
2018-08-28T17:31:18.691Z,100836.98
2018-08-28T17:33:48.276Z,100840.66
2018-08-28T17:36:17.252Z,100841.94
2018-08-28T17:38:47.084Z,100850.05
2018-08-28T17:41:16.621Z,100850.30
2018-08-28T17:43:45.412Z,100858.41
2018-08-28T17:46:14.403Z,100855.11
2018-08-28T17:48:45.322Z,100855.98
2018-08-28T17:51:14.853Z,100857.08
2018-08-28T17:53:43.732Z,100853.27
2018-08-28T17:56:13.416Z,100866.84
2018-08-28T17:58:42.934Z,100867.33
2018-08-28T18:01:11.881Z,100864.25
2018-08-28T18:03:40.841Z,100870.95
2018-08-28T18:06:10.482Z,100873.52
2018-08-28T18:11:22.485Z,100873.22
2018-08-28T18:13:51.348Z,100871.22
2018-08-28T18:16:20.382Z,100878.64
2018-08-28T18:18:49.336Z,100877.95
2018-08-28T18:21:18.307Z,100883.75
2018-08-28T18:23:47.982Z,100882.23
2018-08-28T18:26:17.959Z,100886.59
2018-08-28T18:28:47.423Z,100892.27
2018-08-28T18:31:16.964Z,100897.89
2018-08-28T18:33:47.339Z,100907.31
2018-08-28T18:36:16.160Z,100902.31
2018-08-28T18:38:45.935Z,100910.05
2018-08-28T18:41:15.528Z,100920.36
2018-08-28T18:43:44.278Z,100914.23
2018-08-28T18:46:13.142Z,100906.25
2018-08-28T18:48:42.677Z,100913.24
2018-08-28T18:51:12.996Z,100914.73
2018-08-28T18:53:42.020Z,100914.63
2018-08-28T18:58:48.707Z,100929.75
2018-08-28T19:01:17.582Z,100926.53
2018-08-28T19:03:46.413Z,100927.42
2018-08-28T19:06:16.393Z,100933.17
2018-08-28T19:08:45.267Z,100927.78
2018-08-28T19:11:14.032Z,100934.06
2018-08-28T19:13:43.037Z,100935.20
2018-08-28T19:16:11.860Z,100933.88
2018-08-28T19:18:40.853Z,100937.22
2018-08-28T19:21:10.550Z,100932.94
2018-08-28T19:23:39.968Z,100933.34
2018-08-28T19:26:09.905Z,100938.49
2018-08-28T19:28:39.356Z,100942.34
2018-08-28T19:31:08.973Z,100937.01
2018-08-28T19:33:38.355Z,100934.41
2018-08-28T19:36:07.239Z,100946.40
2018-08-28T19:38:36.576Z,100946.11
2018-08-28T19:41:05.970Z,100946.03
2018-08-28T19:43:34.904Z,100955.45
2018-08-28T19:46:04.291Z,100949.84
2018-08-28T19:48:33.803Z,100949.67
2018-08-28T19:51:03.145Z,100955.98
2018-08-28T19:53:32.174Z,100943.45
2018-08-28T19:56:01.249Z,100952.75
2018-08-28T19:58:30.981Z,100949.36
2018-08-28T20:01:00.179Z,100955.41
2018-08-28T20:03:29.267Z,100953.14
2018-08-28T20:05:59.085Z,100957.84
2018-08-28T20:08:29.096Z,100951.44
2018-08-28T20:10:57.852Z,100957.79
2018-08-28T20:13:26.944Z,100958.25
2018-08-28T20:15:55.933Z,100952.68
2018-08-28T20:18:24.760Z,100954.37
2018-08-28T20:20:53.766Z,100958.05
2018-08-28T20:23:23.780Z,100957.25
2018-08-28T20:25:52.640Z,100957.41
2018-08-28T20:28:21.889Z,100958.36
2018-08-28T20:30:51.121Z,100956.52
2018-08-28T20:33:20.748Z,100961.45
2018-08-28T20:35:49.560Z,100966.34
2018-08-28T20:38:18.887Z,100964.91
2018-08-28T20:40:48.548Z,100965.78
2018-08-28T20:43:18.385Z,100966.11
2018-08-28T20:45:47.247Z,100964.09
2018-08-28T20:48:16.578Z,100969.49
2018-08-28T20:50:45.874Z,100975.09
2018-08-28T20:53:14.822Z,100978.45
2018-08-28T20:55:43.606Z,100971.20
2018-08-28T20:58:13.296Z,100979.92
2018-08-28T21:00:42.335Z,100979.75
2018-08-28T21:03:11.299Z,100985.24
2018-08-28T21:05:40.639Z,100994.43
2018-08-28T21:08:10.126Z,100999.64
2018-08-28T21:10:38.945Z,100999.44
2018-08-28T21:13:07.740Z,100998.64
2018-08-28T21:15:36.527Z,101004.96
2018-08-28T21:18:05.359Z,101003.72
2018-08-28T21:20:34.299Z,101010.37
2018-08-28T21:23:03.174Z,101015.34
2018-08-28T21:25:33.111Z,101013.58
2018-08-28T21:28:02.309Z,101002.29
2018-08-28T21:30:31.983Z,101010.36
2018-08-28T21:33:01.776Z,101009.45
2018-08-28T21:35:31.178Z,101014.01
2018-08-28T21:38:00.791Z,101024.04
2018-08-28T21:40:31.959Z,101021.45
2018-08-28T21:43:01.127Z,101023.23
2018-08-28T21:45:30.295Z,101026.84
2018-08-28T21:48:00.139Z,101019.91
2018-08-28T21:50:29.892Z,101019.20
2018-08-28T21:52:58.992Z,101023.53
2018-08-28T21:55:28.175Z,101021.97
2018-08-28T21:57:57.716Z,101027.78
2018-08-28T22:00:26.665Z,101030.55
2018-08-28T22:02:55.509Z,101034.48
2018-08-28T22:05:29.716Z,101032.50
2018-08-28T22:08:03.645Z,101032.63
2018-08-28T22:10:32.870Z,101041.72
2018-08-28T22:13:02.122Z,101037.58
2018-08-28T22:15:31.962Z,101041.81
2018-08-28T22:18:01.488Z,101036.31
2018-08-28T22:20:31.054Z,101036.72
2018-08-28T22:23:00.170Z,101037.03
2018-08-28T22:25:29.727Z,101041.58
2018-08-28T22:28:00.367Z,101042.20
2018-08-28T22:30:29.961Z,101047.19
2018-08-28T22:32:59.723Z,101046.89
2018-08-28T22:35:29.544Z,101052.78
2018-08-28T22:37:59.268Z,101056.52
2018-08-28T22:40:29.235Z,101040.70
2018-08-28T22:42:58.004Z,101048.77
2018-08-28T22:45:27.179Z,101050.44
2018-08-28T22:47:56.640Z,101051.25
2018-08-28T22:50:26.367Z,101048.78
2018-08-28T22:52:55.154Z,101045.66
2018-08-28T22:55:23.955Z,101045.45
2018-08-28T22:57:53.240Z,101046.28
2018-08-28T23:00:23.993Z,101040.28
2018-08-28T23:02:54.567Z,101038.85
2018-08-28T23:05:23.398Z,101036.57
2018-08-28T23:07:53.086Z,101038.02
2018-08-28T23:10:21.942Z,101041.86
2018-08-28T23:12:51.270Z,101037.80
2018-08-28T23:15:20.131Z,101041.61
2018-08-28T23:17:48.903Z,101037.28
2018-08-28T23:20:18.471Z,101040.89
2018-08-28T23:22:47.397Z,101041.80
2018-08-28T23:25:17.177Z,101033.55
2018-08-28T23:27:45.914Z,101036.52
2018-08-28T23:30:15.096Z,101037.16
2018-08-28T23:32:44.734Z,101038.78
2018-08-28T23:35:14.439Z,101041.75
2018-08-28T23:37:43.922Z,101039.66
2018-08-28T23:40:13.627Z,101043.66
2018-08-28T23:42:43.680Z,101036.73
2018-08-28T23:45:13.229Z,101043.42
2018-08-28T23:47:43.476Z,101049.30
2018-08-28T23:50:13.099Z,101048.94
2018-08-28T23:52:41.906Z,101044.90
2018-08-28T23:55:10.716Z,101041.97
2018-08-28T23:57:40.412Z,101041.84
